sensor_id;sensor_type;location;lat;lon;timestamp;temperature;humidity
39503;DHT22;26970;49.900;10.774;2022-12-10T00:02:08;-1.90;99.90
39503;DHT22;26970;49.900;10.774;2022-12-10T00:04:34;-1.90;99.90
39503;DHT22;26970;49.900;10.774;2022-12-10T00:06:59;-1.90;99.90
39503;DHT22;26970;49.900;10.774;2022-12-10T00:09:25;-1.90;99.90
39503;DHT22;26970;49.900;10.774;2022-12-10T00:11:50;-1.90;99.90
39503;DHT22;26970;49.900;10.774;2022-12-10T00:14:16;-2.00;99.90
39503;DHT22;26970;49.900;10.774;2022-12-10T00:16:42;-2.00;99.90
39503;DHT22;26970;49.900;10.774;2022-12-10T00:19:08;-2.00;99.90
39503;DHT22;26970;49.900;10.774;2022-12-10T00:21:35;-2.00;99.90
39503;DHT22;26970;49.900;10.774;2022-12-10T00:24:02;-2.00;99.90
39503;DHT22;26970;49.900;10.774;2022-12-10T00:26:30;-2.00;99.90
39503;DHT22;26970;49.900;10.774;2022-12-10T00:28:57;-2.00;99.90
39503;DHT22;26970;49.900;10.774;2022-12-10T00:31:28;-2.10;99.90
39503;DHT22;26970;49.900;10.774;2022-12-10T00:33:59;-2.10;99.90
39503;DHT22;26970;49.900;10.774;2022-12-10T00:36:30;-2.10;99.90
39503;DHT22;26970;49.900;10.774;2022-12-10T00:38:57;-2.10;99.90
39503;DHT22;26970;49.900;10.774;2022-12-10T00:41:22;-2.20;99.90
39503;DHT22;26970;49.900;10.774;2022-12-10T00:43:48;-2.10;99.90
39503;DHT22;26970;49.900;10.774;2022-12-10T00:46:15;-2.10;99.90
39503;DHT22;26970;49.900;10.774;2022-12-10T00:48:42;-2.10;99.90
39503;DHT22;26970;49.900;10.774;2022-12-10T00:51:13;-2.10;99.90
39503;DHT22;26970;49.900;10.774;2022-12-10T00:53:40;-2.10;99.90
39503;DHT22;26970;49.900;10.774;2022-12-10T00:56:07;-0.80;99.90
39503;DHT22;26970;49.900;10.774;2022-12-10T00:58:35;-2.20;99.90
39503;DHT22;26970;49.900;10.774;2022-12-10T01:01:31;-2.30;99.90
39503;DHT22;26970;49.900;10.774;2022-12-10T01:04:00;-2.30;99.90
39503;DHT22;26970;49.900;10.774;2022-12-10T01:06:28;-2.30;99.90
39503;DHT22;26970;49.900;10.774;2022-12-10T01:08:57;-2.20;99.90
39503;DHT22;26970;49.900;10.774;2022-12-10T01:11:29;-2.20;99.90
39503;DHT22;26970;49.900;10.774;2022-12-10T01:13:55;-2.20;99.90
39503;DHT22;26970;49.900;10.774;2022-12-10T01:16:21;-2.20;99.90
39503;DHT22;26970;49.900;10.774;2022-12-10T01:18:47;-2.20;99.90
39503;DHT22;26970;49.900;10.774;2022-12-10T01:21:18;-2.10;99.90
39503;DHT22;26970;49.900;10.774;2022-12-10T01:23:47;-2.20;99.90
39503;DHT22;26970;49.900;10.774;2022-12-10T01:26:15;-2.20;99.90
39503;DHT22;26970;49.900;10.774;2022-12-10T01:28:41;-2.10;99.90
39503;DHT22;26970;49.900;10.774;2022-12-10T01:31:14;-2.10;99.90
39503;DHT22;26970;49.900;10.774;2022-12-10T01:33:40;-2.10;99.90
39503;DHT22;26970;49.900;10.774;2022-12-10T01:36:11;-2.10;99.90
39503;DHT22;26970;49.900;10.774;2022-12-10T01:38:37;-2.10;99.90
39503;DHT22;26970;49.900;10.774;2022-12-10T01:41:04;-2.00;99.90
39503;DHT22;26970;49.900;10.774;2022-12-10T01:43:52;-2.00;99.90
39503;DHT22;26970;49.900;10.774;2022-12-10T01:46:19;-1.90;99.90
39503;DHT22;26970;49.900;10.774;2022-12-10T01:48:45;-1.90;99.90
39503;DHT22;26970;49.900;10.774;2022-12-10T01:51:12;-1.90;99.90
39503;DHT22;26970;49.900;10.774;2022-12-10T01:53:38;-1.90;99.90
39503;DHT22;26970;49.900;10.774;2022-12-10T01:56:04;-1.80;99.90
39503;DHT22;26970;49.900;10.774;2022-12-10T01:58:30;-1.80;99.90
39503;DHT22;26970;49.900;10.774;2022-12-10T02:01:11;-1.80;99.90
39503;DHT22;26970;49.900;10.774;2022-12-10T02:03:52;-1.80;99.90
39503;DHT22;26970;49.900;10.774;2022-12-10T02:06:48;-1.70;99.90
39503;DHT22;26970;49.900;10.774;2022-12-10T02:09:35;-1.70;99.90
39503;DHT22;26970;49.900;10.774;2022-12-10T02:12:23;-1.70;99.90
39503;DHT22;26970;49.900;10.774;2022-12-10T02:15:25;-1.70;99.90
39503;DHT22;26970;49.900;10.774;2022-12-10T02:17:57;-1.70;99.90
39503;DHT22;26970;49.900;10.774;2022-12-10T02:20:29;-1.60;99.90
39503;DHT22;26970;49.900;10.774;2022-12-10T02:23:02;-1.60;99.90
39503;DHT22;26970;49.900;10.774;2022-12-10T02:25:36;-1.60;99.90
39503;DHT22;26970;49.900;10.774;2022-12-10T02:28:13;-1.60;99.90
39503;DHT22;26970;49.900;10.774;2022-12-10T02:30:40;-1.60;99.90
39503;DHT22;26970;49.900;10.774;2022-12-10T02:33:08;-1.60;99.90
39503;DHT22;26970;49.900;10.774;2022-12-10T02:35:35;-1.50;99.90
39503;DHT22;26970;49.900;10.774;2022-12-10T02:38:09;-1.50;99.90
39503;DHT22;26970;49.900;10.774;2022-12-10T02:40:37;-1.50;99.90
39503;DHT22;26970;49.900;10.774;2022-12-10T02:43:06;-1.50;99.90
39503;DHT22;26970;49.900;10.774;2022-12-10T02:45:33;-1.50;99.90
39503;DHT22;26970;49.900;10.774;2022-12-10T02:48:01;-1.50;99.90
39503;DHT22;26970;49.900;10.774;2022-12-10T02:50:28;-1.50;99.90
39503;DHT22;26970;49.900;10.774;2022-12-10T02:52:53;-1.50;99.90
39503;DHT22;26970;49.900;10.774;2022-12-10T02:55:19;-1.40;99.90
39503;DHT22;26970;49.900;10.774;2022-12-10T02:57:58;-1.40;99.90
39503;DHT22;26970;49.900;10.774;2022-12-10T03:00:29;-1.40;99.90
39503;DHT22;26970;49.900;10.774;2022-12-10T03:03:03;-1.40;99.90
39503;DHT22;26970;49.900;10.774;2022-12-10T03:05:48;-1.30;99.90
39503;DHT22;26970;49.900;10.774;2022-12-10T03:11:21;-1.30;99.90
39503;DHT22;26970;49.900;10.774;2022-12-10T03:14:02;-1.30;99.90
39503;DHT22;26970;49.900;10.774;2022-12-10T03:16:33;-1.30;99.90
39503;DHT22;26970;49.900;10.774;2022-12-10T03:19:04;-1.30;99.90
39503;DHT22;26970;49.900;10.774;2022-12-10T03:21:32;-1.30;99.90
39503;DHT22;26970;49.900;10.774;2022-12-10T03:24:00;-1.30;99.90
39503;DHT22;26970;49.900;10.774;2022-12-10T03:26:26;-1.30;99.90
39503;DHT22;26970;49.900;10.774;2022-12-10T03:28:57;-1.30;99.90
39503;DHT22;26970;49.900;10.774;2022-12-10T03:31:26;-1.30;99.90
39503;DHT22;26970;49.900;10.774;2022-12-10T03:33:52;-1.30;99.90
39503;DHT22;26970;49.900;10.774;2022-12-10T03:36:19;-1.30;99.90
39503;DHT22;26970;49.900;10.774;2022-12-10T03:38:45;-1.30;99.90
39503;DHT22;26970;49.900;10.774;2022-12-10T03:41:11;-1.30;99.90
39503;DHT22;26970;49.900;10.774;2022-12-10T03:43:53;-1.30;99.90
39503;DHT22;26970;49.900;10.774;2022-12-10T03:46:19;-1.40;99.90
39503;DHT22;26970;49.900;10.774;2022-12-10T03:48:45;-1.40;99.90
39503;DHT22;26970;49.900;10.774;2022-12-10T03:51:11;-1.40;99.90
39503;DHT22;26970;49.900;10.774;2022-12-10T03:53:36;-1.40;99.90
39503;DHT22;26970;49.900;10.774;2022-12-10T03:56:02;-1.40;99.90
39503;DHT22;26970;49.900;10.774;2022-12-10T03:58:27;-1.40;99.90
39503;DHT22;26970;49.900;10.774;2022-12-10T04:00:53;-1.40;99.90
39503;DHT22;26970;49.900;10.774;2022-12-10T04:03:18;-1.40;99.90
39503;DHT22;26970;49.900;10.774;2022-12-10T04:05:44;-1.30;99.90
39503;DHT22;26970;49.900;10.774;2022-12-10T04:08:09;-1.30;99.90
39503;DHT22;26970;49.900;10.774;2022-12-10T04:10:36;-1.30;99.90
39503;DHT22;26970;49.900;10.774;2022-12-10T04:13:02;-1.30;99.90
39503;DHT22;26970;49.900;10.774;2022-12-10T04:15:46;-1.30;99.90
39503;DHT22;26970;49.900;10.774;2022-12-10T04:18:30;-1.30;99.90
39503;DHT22;26970;49.900;10.774;2022-12-10T04:20:55;-1.30;99.90
39503;DHT22;26970;49.900;10.774;2022-12-10T04:23:39;-1.30;99.90
39503;DHT22;26970;49.900;10.774;2022-12-10T04:26:23;-1.40;99.90
39503;DHT22;26970;49.900;10.774;2022-12-10T04:29:07;-1.30;99.90
39503;DHT22;26970;49.900;10.774;2022-12-10T04:31:34;-1.40;99.90
39503;DHT22;26970;49.900;10.774;2022-12-10T04:33:59;-1.40;99.90
39503;DHT22;26970;49.900;10.774;2022-12-10T04:36:25;-1.40;99.90
39503;DHT22;26970;49.900;10.774;2022-12-10T04:38:50;-1.40;99.90
39503;DHT22;26970;49.900;10.774;2022-12-10T04:41:16;-1.30;99.90
39503;DHT22;26970;49.900;10.774;2022-12-10T04:43:42;-1.40;99.90
39503;DHT22;26970;49.900;10.774;2022-12-10T04:46:09;-1.40;99.90
39503;DHT22;26970;49.900;10.774;2022-12-10T04:48:35;-1.40;99.90
39503;DHT22;26970;49.900;10.774;2022-12-10T04:51:00;-1.40;99.90
39503;DHT22;26970;49.900;10.774;2022-12-10T04:53:26;-1.40;99.90
39503;DHT22;26970;49.900;10.774;2022-12-10T04:55:51;-1.40;99.90
39503;DHT22;26970;49.900;10.774;2022-12-10T04:58:17;-1.40;99.90
39503;DHT22;26970;49.900;10.774;2022-12-10T05:00:43;-1.40;99.90
39503;DHT22;26970;49.900;10.774;2022-12-10T05:03:08;-1.40;99.90
39503;DHT22;26970;49.900;10.774;2022-12-10T05:05:34;-1.40;99.90
39503;DHT22;26970;49.900;10.774;2022-12-10T05:08:00;-1.40;99.90
39503;DHT22;26970;49.900;10.774;2022-12-10T05:10:25;-1.40;99.90
39503;DHT22;26970;49.900;10.774;2022-12-10T05:12:51;-1.40;99.90
39503;DHT22;26970;49.900;10.774;2022-12-10T05:15:17;-1.40;99.90
39503;DHT22;26970;49.900;10.774;2022-12-10T05:17:43;-1.40;99.90
39503;DHT22;26970;49.900;10.774;2022-12-10T05:20:09;-1.30;99.90
39503;DHT22;26970;49.900;10.774;2022-12-10T05:22:35;-1.30;99.90
39503;DHT22;26970;49.900;10.774;2022-12-10T05:25:19;-1.30;99.90
39503;DHT22;26970;49.900;10.774;2022-12-10T05:27:45;-1.30;99.90
39503;DHT22;26970;49.900;10.774;2022-12-10T05:30:11;-1.30;99.90
39503;DHT22;26970;49.900;10.774;2022-12-10T05:32:36;-1.40;99.90
39503;DHT22;26970;49.900;10.774;2022-12-10T05:35:02;-1.30;99.90
39503;DHT22;26970;49.900;10.774;2022-12-10T05:37:28;-1.30;99.90
39503;DHT22;26970;49.900;10.774;2022-12-10T05:39:54;-1.30;99.90
39503;DHT22;26970;49.900;10.774;2022-12-10T05:42:19;-1.30;99.90
39503;DHT22;26970;49.900;10.774;2022-12-10T05:44:45;-1.40;99.90
39503;DHT22;26970;49.900;10.774;2022-12-10T05:47:11;-1.30;99.90
39503;DHT22;26970;49.900;10.774;2022-12-10T05:49:36;-1.30;99.90
39503;DHT22;26970;49.900;10.774;2022-12-10T05:52:02;-1.30;99.90
39503;DHT22;26970;49.900;10.774;2022-12-10T05:54:28;-1.30;99.90
39503;DHT22;26970;49.900;10.774;2022-12-10T05:56:53;-1.20;99.90
39503;DHT22;26970;49.900;10.774;2022-12-10T05:59:19;-1.20;99.90
39503;DHT22;26970;49.900;10.774;2022-12-10T06:01:45;-1.20;99.90
39503;DHT22;26970;49.900;10.774;2022-12-10T06:04:11;-1.20;99.90
39503;DHT22;26970;49.900;10.774;2022-12-10T06:06:38;-1.20;99.90
39503;DHT22;26970;49.900;10.774;2022-12-10T06:09:05;-1.20;99.90
39503;DHT22;26970;49.900;10.774;2022-12-10T06:11:31;-1.20;99.90
39503;DHT22;26970;49.900;10.774;2022-12-10T06:13:57;-1.20;99.90
39503;DHT22;26970;49.900;10.774;2022-12-10T06:16:25;-1.10;99.90
39503;DHT22;26970;49.900;10.774;2022-12-10T06:18:51;-1.10;99.90
39503;DHT22;26970;49.900;10.774;2022-12-10T06:21:18;-1.10;99.90
39503;DHT22;26970;49.900;10.774;2022-12-10T06:23:45;-1.10;99.90
39503;DHT22;26970;49.900;10.774;2022-12-10T06:26:16;-1.10;99.90
39503;DHT22;26970;49.900;10.774;2022-12-10T06:28:44;-1.00;99.90
39503;DHT22;26970;49.900;10.774;2022-12-10T06:31:10;-1.00;99.90
39503;DHT22;26970;49.900;10.774;2022-12-10T06:33:36;-1.00;99.90
39503;DHT22;26970;49.900;10.774;2022-12-10T06:36:06;-1.00;99.90
39503;DHT22;26970;49.900;10.774;2022-12-10T06:38:32;-1.00;99.90
39503;DHT22;26970;49.900;10.774;2022-12-10T06:40:58;-1.00;99.90
39503;DHT22;26970;49.900;10.774;2022-12-10T06:43:24;-0.90;99.90
39503;DHT22;26970;49.900;10.774;2022-12-10T06:45:49;-1.00;99.90
39503;DHT22;26970;49.900;10.774;2022-12-10T06:48:15;-0.90;99.90
39503;DHT22;26970;49.900;10.774;2022-12-10T06:50:40;-1.00;99.90
39503;DHT22;26970;49.900;10.774;2022-12-10T06:53:06;-1.00;99.90
39503;DHT22;26970;49.900;10.774;2022-12-10T06:55:32;-1.00;99.90
39503;DHT22;26970;49.900;10.774;2022-12-10T06:57:58;-1.00;99.90
39503;DHT22;26970;49.900;10.774;2022-12-10T07:00:24;-0.90;99.90
39503;DHT22;26970;49.900;10.774;2022-12-10T07:02:49;-0.90;99.90
39503;DHT22;26970;49.900;10.774;2022-12-10T07:05:15;-0.90;99.90
39503;DHT22;26970;49.900;10.774;2022-12-10T07:07:40;-0.90;99.90
39503;DHT22;26970;49.900;10.774;2022-12-10T07:10:06;-0.90;99.90
39503;DHT22;26970;49.900;10.774;2022-12-10T07:12:32;-0.90;99.90
39503;DHT22;26970;49.900;10.774;2022-12-10T07:14:57;-0.90;99.90
39503;DHT22;26970;49.900;10.774;2022-12-10T07:17:23;-0.90;99.90
39503;DHT22;26970;49.900;10.774;2022-12-10T07:19:49;-0.90;99.90
39503;DHT22;26970;49.900;10.774;2022-12-10T07:22:14;-0.90;99.90
39503;DHT22;26970;49.900;10.774;2022-12-10T07:24:40;-0.90;99.90
39503;DHT22;26970;49.900;10.774;2022-12-10T07:27:07;-0.90;99.90
39503;DHT22;26970;49.900;10.774;2022-12-10T07:29:33;-0.90;99.90
39503;DHT22;26970;49.900;10.774;2022-12-10T07:31:58;-0.90;99.90
39503;DHT22;26970;49.900;10.774;2022-12-10T07:34:24;-0.90;99.90
39503;DHT22;26970;49.900;10.774;2022-12-10T07:36:49;-0.90;99.90
39503;DHT22;26970;49.900;10.774;2022-12-10T07:39:15;-0.90;99.90
39503;DHT22;26970;49.900;10.774;2022-12-10T07:41:47;-0.90;99.90
39503;DHT22;26970;49.900;10.774;2022-12-10T07:44:15;-0.90;99.90
39503;DHT22;26970;49.900;10.774;2022-12-10T07:46:41;-0.80;99.90
39503;DHT22;26970;49.900;10.774;2022-12-10T07:49:07;-0.90;99.90
39503;DHT22;26970;49.900;10.774;2022-12-10T07:51:33;-0.80;99.90
39503;DHT22;26970;49.900;10.774;2022-12-10T07:53:59;-0.80;99.90
39503;DHT22;26970;49.900;10.774;2022-12-10T07:56:24;-0.80;99.90
39503;DHT22;26970;49.900;10.774;2022-12-10T07:58:51;-0.80;99.90
39503;DHT22;26970;49.900;10.774;2022-12-10T08:01:19;-0.70;99.90
39503;DHT22;26970;49.900;10.774;2022-12-10T08:03:45;-0.70;99.90
39503;DHT22;26970;49.900;10.774;2022-12-10T08:06:21;-0.70;99.90
39503;DHT22;26970;49.900;10.774;2022-12-10T08:08:47;-0.70;99.90
39503;DHT22;26970;49.900;10.774;2022-12-10T08:11:14;-0.60;99.90
39503;DHT22;26970;49.900;10.774;2022-12-10T08:13:40;-0.60;99.90
39503;DHT22;26970;49.900;10.774;2022-12-10T08:16:15;-0.60;99.90
39503;DHT22;26970;49.900;10.774;2022-12-10T08:18:41;-0.60;99.90
39503;DHT22;26970;49.900;10.774;2022-12-10T08:21:12;-0.50;99.90
39503;DHT22;26970;49.900;10.774;2022-12-10T08:23:37;-0.50;99.90
39503;DHT22;26970;49.900;10.774;2022-12-10T08:26:04;-0.50;99.90
39503;DHT22;26970;49.900;10.774;2022-12-10T08:28:30;-0.50;99.90
39503;DHT22;26970;49.900;10.774;2022-12-10T08:30:55;-0.50;99.90
39503;DHT22;26970;49.900;10.774;2022-12-10T08:33:21;-0.50;99.90
39503;DHT22;26970;49.900;10.774;2022-12-10T08:35:47;-0.40;99.90
39503;DHT22;26970;49.900;10.774;2022-12-10T08:38:12;-0.40;99.90
39503;DHT22;26970;49.900;10.774;2022-12-10T08:40:41;-0.40;99.90
39503;DHT22;26970;49.900;10.774;2022-12-10T08:43:07;-0.40;99.90
39503;DHT22;26970;49.900;10.774;2022-12-10T08:45:33;-0.40;99.90
39503;DHT22;26970;49.900;10.774;2022-12-10T08:48:00;-0.40;99.90
39503;DHT22;26970;49.900;10.774;2022-12-10T08:50:26;-0.30;99.90
39503;DHT22;26970;49.900;10.774;2022-12-10T08:52:52;-0.40;99.90
39503;DHT22;26970;49.900;10.774;2022-12-10T08:55:18;-0.30;99.90
39503;DHT22;26970;49.900;10.774;2022-12-10T08:57:43;-0.40;99.90
39503;DHT22;26970;49.900;10.774;2022-12-10T09:00:09;-0.40;99.90
39503;DHT22;26970;49.900;10.774;2022-12-10T09:02:35;-0.30;99.90
39503;DHT22;26970;49.900;10.774;2022-12-10T09:05:01;-0.30;99.90
39503;DHT22;26970;49.900;10.774;2022-12-10T09:07:26;-0.30;99.90
39503;DHT22;26970;49.900;10.774;2022-12-10T09:09:52;-0.30;99.90
39503;DHT22;26970;49.900;10.774;2022-12-10T09:12:17;-0.30;99.90
39503;DHT22;26970;49.900;10.774;2022-12-10T09:14:43;-0.20;99.90
39503;DHT22;26970;49.900;10.774;2022-12-10T09:17:09;-0.20;99.90
39503;DHT22;26970;49.900;10.774;2022-12-10T09:19:34;-0.20;99.90
39503;DHT22;26970;49.900;10.774;2022-12-10T09:22:00;-0.20;99.90
39503;DHT22;26970;49.900;10.774;2022-12-10T09:24:25;-0.20;99.90
39503;DHT22;26970;49.900;10.774;2022-12-10T09:26:51;-0.10;99.90
39503;DHT22;26970;49.900;10.774;2022-12-10T09:29:16;-0.20;99.90
39503;DHT22;26970;49.900;10.774;2022-12-10T09:31:42;-0.20;99.90
39503;DHT22;26970;49.900;10.774;2022-12-10T09:34:08;-0.20;99.90
39503;DHT22;26970;49.900;10.774;2022-12-10T09:36:33;-0.30;99.90
39503;DHT22;26970;49.900;10.774;2022-12-10T09:38:59;-0.40;99.90
39503;DHT22;26970;49.900;10.774;2022-12-10T09:46:52;-0.30;99.90
39503;DHT22;26970;49.900;10.774;2022-12-10T09:52:12;-0.40;99.90
39503;DHT22;26970;49.900;10.774;2022-12-10T09:54:43;-0.40;99.90
39503;DHT22;26970;49.900;10.774;2022-12-10T09:57:22;-0.40;99.90
39503;DHT22;26970;49.900;10.774;2022-12-10T09:59:50;-0.50;99.90
39503;DHT22;26970;49.900;10.774;2022-12-10T10:02:29;-0.50;99.90
39503;DHT22;26970;49.900;10.774;2022-12-10T10:05:19;-0.50;99.90
39503;DHT22;26970;49.900;10.774;2022-12-10T10:07:49;-0.40;99.90
39503;DHT22;26970;49.900;10.774;2022-12-10T10:10:34;-0.40;99.90
39503;DHT22;26970;49.900;10.774;2022-12-10T10:13:15;-0.30;99.90
39503;DHT22;26970;49.900;10.774;2022-12-10T10:15:44;-0.20;99.90
39503;DHT22;26970;49.900;10.774;2022-12-10T10:18:30;-0.20;99.90
39503;DHT22;26970;49.900;10.774;2022-12-10T10:21:00;-0.10;99.90
39503;DHT22;26970;49.900;10.774;2022-12-10T10:23:26;-0.10;99.90
39503;DHT22;26970;49.900;10.774;2022-12-10T10:25:51;0.00;99.90
39503;DHT22;26970;49.900;10.774;2022-12-10T10:28:22;0.10;99.90
39503;DHT22;26970;49.900;10.774;2022-12-10T10:30:48;0.10;99.90
39503;DHT22;26970;49.900;10.774;2022-12-10T10:33:15;0.20;99.90
39503;DHT22;26970;49.900;10.774;2022-12-10T10:35:48;0.20;99.90
39503;DHT22;26970;49.900;10.774;2022-12-10T10:38:23;0.30;99.90
39503;DHT22;26970;49.900;10.774;2022-12-10T10:41:11;0.30;99.90
39503;DHT22;26970;49.900;10.774;2022-12-10T10:43:43;0.40;99.90
39503;DHT22;26970;49.900;10.774;2022-12-10T10:46:15;0.40;99.90
39503;DHT22;26970;49.900;10.774;2022-12-10T10:48:41;0.50;99.90
39503;DHT22;26970;49.900;10.774;2022-12-10T10:53:46;0.70;99.90
39503;DHT22;26970;49.900;10.774;2022-12-10T10:58:55;0.80;99.90
39503;DHT22;26970;49.900;10.774;2022-12-10T11:01:24;0.90;99.90
39503;DHT22;26970;49.900;10.774;2022-12-10T11:03:54;1.00;99.90
39503;DHT22;26970;49.900;10.774;2022-12-10T11:06:21;1.10;99.90
39503;DHT22;26970;49.900;10.774;2022-12-10T11:08:47;1.20;99.90
39503;DHT22;26970;49.900;10.774;2022-12-10T11:11:24;1.30;99.90
39503;DHT22;26970;49.900;10.774;2022-12-10T11:13:51;1.30;99.90
39503;DHT22;26970;49.900;10.774;2022-12-10T11:16:23;1.30;99.90
39503;DHT22;26970;49.900;10.774;2022-12-10T11:19:02;1.30;99.90
39503;DHT22;26970;49.900;10.774;2022-12-10T11:21:31;1.20;99.90
39503;DHT22;26970;49.900;10.774;2022-12-10T11:23:57;1.20;99.90
39503;DHT22;26970;49.900;10.774;2022-12-10T11:29:40;1.20;99.90
39503;DHT22;26970;49.900;10.774;2022-12-10T11:32:15;1.20;99.90
39503;DHT22;26970;49.900;10.774;2022-12-10T11:40:24;1.10;99.90
39503;DHT22;26970;49.900;10.774;2022-12-10T11:43:04;1.10;99.90
39503;DHT22;26970;49.900;10.774;2022-12-10T11:51:02;1.10;99.90
39503;DHT22;26970;49.900;10.774;2022-12-10T12:06:55;1.00;99.90
39503;DHT22;26970;49.900;10.774;2022-12-10T12:09:39;0.90;99.90
39503;DHT22;26970;49.900;10.774;2022-12-10T12:14:57;1.00;99.90
39503;DHT22;26970;49.900;10.774;2022-12-10T12:17:32;0.90;99.90
39503;DHT22;26970;49.900;10.774;2022-12-10T12:20:03;0.90;99.90
39503;DHT22;26970;49.900;10.774;2022-12-10T12:22:34;0.90;99.90
39503;DHT22;26970;49.900;10.774;2022-12-10T12:25:25;0.90;99.90
39503;DHT22;26970;49.900;10.774;2022-12-10T12:31:16;0.90;99.90
39503;DHT22;26970;49.900;10.774;2022-12-10T12:33:58;0.80;99.90
39503;DHT22;26970;49.900;10.774;2022-12-10T12:36:27;0.80;99.90
39503;DHT22;26970;49.900;10.774;2022-12-10T12:50:41;0.80;99.90
39503;DHT22;26970;49.900;10.774;2022-12-10T12:53:12;0.80;99.90
39503;DHT22;26970;49.900;10.774;2022-12-10T12:55:46;0.90;99.90
39503;DHT22;26970;49.900;10.774;2022-12-10T12:58:31;0.90;99.90
39503;DHT22;26970;49.900;10.774;2022-12-10T13:01:15;0.80;99.90
39503;DHT22;26970;49.900;10.774;2022-12-10T13:03:43;0.80;99.90
39503;DHT22;26970;49.900;10.774;2022-12-10T13:11:40;0.80;99.90
39503;DHT22;26970;49.900;10.774;2022-12-10T13:22:05;0.80;99.90
39503;DHT22;26970;49.900;10.774;2022-12-10T13:40:40;0.50;99.90
39503;DHT22;26970;49.900;10.774;2022-12-10T13:48:58;0.30;99.90
39503;DHT22;26970;49.900;10.774;2022-12-10T13:51:59;0.30;99.90
39503;DHT22;26970;49.900;10.774;2022-12-10T14:00:06;0.30;99.90
39503;DHT22;26970;49.900;10.774;2022-12-10T14:03:16;0.30;99.90
39503;DHT22;26970;49.900;10.774;2022-12-10T14:08:29;0.30;99.90
39503;DHT22;26970;49.900;10.774;2022-12-10T14:10:58;0.30;99.90
39503;DHT22;26970;49.900;10.774;2022-12-10T14:13:35;0.30;99.90
39503;DHT22;26970;49.900;10.774;2022-12-10T14:16:02;0.30;99.90
39503;DHT22;26970;49.900;10.774;2022-12-10T14:18:30;0.30;99.90
39503;DHT22;26970;49.900;10.774;2022-12-10T14:20:56;0.30;99.90
39503;DHT22;26970;49.900;10.774;2022-12-10T14:23:30;0.30;99.90
39503;DHT22;26970;49.900;10.774;2022-12-10T14:26:15;0.30;99.90
39503;DHT22;26970;49.900;10.774;2022-12-10T14:28:46;0.30;99.90
39503;DHT22;26970;49.900;10.774;2022-12-10T14:31:16;0.30;99.90
39503;DHT22;26970;49.900;10.774;2022-12-10T14:33:44;0.20;99.90
39503;DHT22;26970;49.900;10.774;2022-12-10T14:36:26;0.20;99.90
39503;DHT22;26970;49.900;10.774;2022-12-10T14:38:52;0.20;99.90
39503;DHT22;26970;49.900;10.774;2022-12-10T14:41:21;0.20;99.90
39503;DHT22;26970;49.900;10.774;2022-12-10T14:43:47;0.20;99.90
39503;DHT22;26970;49.900;10.774;2022-12-10T14:46:33;0.20;99.90
39503;DHT22;26970;49.900;10.774;2022-12-10T14:48:59;0.20;99.90
39503;DHT22;26970;49.900;10.774;2022-12-10T14:51:30;0.20;99.90
39503;DHT22;26970;49.900;10.774;2022-12-10T14:53:56;0.10;99.90
39503;DHT22;26970;49.900;10.774;2022-12-10T14:56:35;0.10;99.90
39503;DHT22;26970;49.900;10.774;2022-12-10T14:59:15;0.20;99.90
39503;DHT22;26970;49.900;10.774;2022-12-10T15:01:49;0.10;99.90
39503;DHT22;26970;49.900;10.774;2022-12-10T15:04:17;0.10;99.90
39503;DHT22;26970;49.900;10.774;2022-12-10T15:06:44;0.10;99.90
39503;DHT22;26970;49.900;10.774;2022-12-10T15:09:23;0.10;99.90
39503;DHT22;26970;49.900;10.774;2022-12-10T15:11:58;0.00;99.90
39503;DHT22;26970;49.900;10.774;2022-12-10T15:14:26;0.10;99.90
39503;DHT22;26970;49.900;10.774;2022-12-10T15:16:55;0.00;99.90
39503;DHT22;26970;49.900;10.774;2022-12-10T15:19:31;-0.10;99.90
39503;DHT22;26970;49.900;10.774;2022-12-10T15:22:21;-0.10;99.90
39503;DHT22;26970;49.900;10.774;2022-12-10T15:24:47;0.00;99.90
39503;DHT22;26970;49.900;10.774;2022-12-10T15:27:21;-0.10;99.90
39503;DHT22;26970;49.900;10.774;2022-12-10T15:29:47;-0.10;99.90
39503;DHT22;26970;49.900;10.774;2022-12-10T15:32:19;-0.10;99.90
39503;DHT22;26970;49.900;10.774;2022-12-10T15:34:48;-0.10;99.90
39503;DHT22;26970;49.900;10.774;2022-12-10T15:37:24;-0.10;99.90
39503;DHT22;26970;49.900;10.774;2022-12-10T15:39:55;-0.10;99.90
39503;DHT22;26970;49.900;10.774;2022-12-10T15:42:41;0.00;99.90
39503;DHT22;26970;49.900;10.774;2022-12-10T15:45:27;0.00;99.90
39503;DHT22;26970;49.900;10.774;2022-12-10T15:48:07;0.10;99.90
39503;DHT22;26970;49.900;10.774;2022-12-10T15:50:34;0.10;99.90
39503;DHT22;26970;49.900;10.774;2022-12-10T15:52:59;0.00;99.90
39503;DHT22;26970;49.900;10.774;2022-12-10T15:55:25;0.00;99.90
39503;DHT22;26970;49.900;10.774;2022-12-10T15:57:50;0.10;99.90
39503;DHT22;26970;49.900;10.774;2022-12-10T16:00:25;0.00;99.90
39503;DHT22;26970;49.900;10.774;2022-12-10T16:03:03;0.00;99.90
39503;DHT22;26970;49.900;10.774;2022-12-10T16:05:35;0.00;99.90
39503;DHT22;26970;49.900;10.774;2022-12-10T16:10:32;-0.10;99.90
39503;DHT22;26970;49.900;10.774;2022-12-10T16:13:00;-0.10;99.90
39503;DHT22;26970;49.900;10.774;2022-12-10T16:15:30;-0.10;99.90
39503;DHT22;26970;49.900;10.774;2022-12-10T16:18:01;-0.10;99.90
39503;DHT22;26970;49.900;10.774;2022-12-10T16:20:30;-0.10;99.90
39503;DHT22;26970;49.900;10.774;2022-12-10T16:22:57;-0.10;99.90
39503;DHT22;26970;49.900;10.774;2022-12-10T16:25:25;-0.10;99.90
39503;DHT22;26970;49.900;10.774;2022-12-10T16:27:51;-0.20;99.90
39503;DHT22;26970;49.900;10.774;2022-12-10T16:30:21;-0.20;99.90
39503;DHT22;26970;49.900;10.774;2022-12-10T16:32:47;-0.20;99.90
39503;DHT22;26970;49.900;10.774;2022-12-10T16:35:14;-0.20;99.90
39503;DHT22;26970;49.900;10.774;2022-12-10T16:37:44;-0.20;99.90
39503;DHT22;26970;49.900;10.774;2022-12-10T16:40:14;-0.20;99.90
39503;DHT22;26970;49.900;10.774;2022-12-10T16:42:41;-0.30;99.90
39503;DHT22;26970;49.900;10.774;2022-12-10T16:45:18;-0.30;99.90
39503;DHT22;26970;49.900;10.774;2022-12-10T16:47:44;-0.30;99.90
39503;DHT22;26970;49.900;10.774;2022-12-10T16:50:11;-0.30;99.90
39503;DHT22;26970;49.900;10.774;2022-12-10T16:52:37;-0.30;99.90
39503;DHT22;26970;49.900;10.774;2022-12-10T16:55:03;-0.20;99.90
39503;DHT22;26970;49.900;10.774;2022-12-10T16:57:29;-0.30;99.90
39503;DHT22;26970;49.900;10.774;2022-12-10T16:59:54;-0.30;99.90
39503;DHT22;26970;49.900;10.774;2022-12-10T17:02:20;-0.30;99.90
39503;DHT22;26970;49.900;10.774;2022-12-10T17:04:46;-0.30;99.90
39503;DHT22;26970;49.900;10.774;2022-12-10T17:07:13;-0.30;99.90
39503;DHT22;26970;49.900;10.774;2022-12-10T17:09:39;-0.30;99.90
39503;DHT22;26970;49.900;10.774;2022-12-10T17:12:06;-0.30;99.90
39503;DHT22;26970;49.900;10.774;2022-12-10T17:14:36;-0.30;99.90
39503;DHT22;26970;49.900;10.774;2022-12-10T17:17:03;-0.20;99.90
39503;DHT22;26970;49.900;10.774;2022-12-10T17:19:31;-0.30;99.90
39503;DHT22;26970;49.900;10.774;2022-12-10T17:21:57;-0.30;99.90
39503;DHT22;26970;49.900;10.774;2022-12-10T17:24:23;-0.30;99.90